LFMP/PGF METAR and TAF weather

Enter ICAO airport designator
Station Type Date Time Source
LFMP METAR 2020/09/27 15:30 UTC NOAA

LFMP 271530Z AUTO 30016G26KT 9999 FEW068 BKN094 16/00 Q1012 TEMPO 32030G45KT


Station Type Date Time Source
LFMP Decoded METAR 2020/09/27 15:30 UTC NOAA

Perpignan, France (LFMP) 42-44N 002-52E 48M
Sep 27, 2020 - 11:30 AM EDT / 2020.09.27 1530 UTC
Wind: from the WNW (300 degrees) at 18 MPH (16 KT) gusting to 30 MPH (26 KT):0
Visibility: greater than 7 mile(s):0
Sky conditions: mostly cloudy
Temperature: 60 F (16 C)
Dew Point: 32 F (0 C)
Relative Humidity: 33%
Pressure (altimeter): 29.88 in. Hg (1012 hPa)
ob: LFMP 271530Z AUTO 30016G26KT 9999 FEW068 BKN094 16/00 Q1012 TEMPO 32030G45KT
cycle: 15

Station Type Date Time Source
LFMP TAF 2020/09/27 15:26 UTC NOAA

TAF LFMP 271400Z 2715/2815 32020G35KT 9999 SCT040
TEMPO 2715/2815 32030G45KT
TEMPO 2803/2809 RA BKN030

Example: see airport list